Amherst, Wisconsin
Current Conditions -  °F | °C
As of 5:15 PM on Thursday 27 Nov 2014 (Local Time) from KSTE Reporting Station
Clear Clear  
Wind Chill: -14°   Ceiling: Unl
Heat Index: -14°   Visibility: 10mi
Dew Point: -18°   Wind: 3mph
Humidity: 72%   Direction: 290°WNW
Pressure: 30.37"   Gusts: NA
Location:  44.45°N, 89.28°W
Report Text: KSTE 272315Z AUTO 29003KT 10SM CLR M14/M18 A3037 RMK AO2 T11401180
Loading
Personal Weather Stations






























Interactive Weather Map New forecast layout! Learn more

10-Day Weather Forecast

Advertisements
Track Severe Weather on mobile